Time;durP1;ratioP1;P1;durP2;ratioP2;P2;SDS_P1;SDS_P2;PMS_P1;PMS_P2;Temp;Humidity;BMP_temperature;BMP_pressure;BME280_temperature;BME280_humidity;BME280_pressure;Samples;Min_cycle;Max_cycle;Signal;HPM_P1;HPM_P2
2022/04/26 03:38:10;;;;;;;6.47;4.40;;;;;;;6.82;80.99;101482.34;5068200;28;20032;-71
2022/04/26 03:40:36;;;;;;;8.70;4.75;;;;;;;6.81;81.67;101486.00;5069979;28;20529;-74
2022/04/26 03:43:02;;;;;;;5.93;4.50;;;;;;;6.81;81.48;101486.00;5068488;28;20040;-68
2022/04/26 03:45:28;;;;;;;7.10;5.22;;;;;;;6.79;81.79;101482.47;5068080;28;20152;-74
2022/04/26 03:47:53;;;;;;;8.13;4.50;;;;;;;6.78;82.20;101485.25;5069043;28;20104;-74
2022/04/26 03:50:18;;;;;;;8.77;4.80;;;;;;;6.77;82.07;101483.53;5063227;28;20044;-74
2022/04/26 03:52:44;;;;;;;7.82;5.22;;;;;;;6.78;81.79;101490.69;5071111;28;20054;-74
2022/04/26 03:55:10;;;;;;;9.45;4.78;;;;;;;6.79;81.73;101492.41;5070490;28;20045;-74
2022/04/26 03:57:35;;;;;;;9.88;5.38;;;;;;;6.79;82.23;101495.13;5042673;28;20124;-73
2022/04/26 04:00:00;;;;;;;8.82;4.85;;;;;;;6.77;82.91;101489.81;5066866;28;20511;-70
2022/04/26 04:02:26;;;;;;;11.70;6.20;;;;;;;6.74;82.30;101487.22;5064893;28;20110;-68
2022/04/26 04:04:51;;;;;;;8.57;4.40;;;;;;;6.79;83.23;101496.00;5064155;28;20117;-67
2022/04/26 04:07:17;;;;;;;9.15;4.70;;;;;;;6.81;83.11;101496.81;5063256;28;20485;-69
2022/04/26 04:09:42;;;;;;;9.45;5.30;;;;;;;6.79;82.90;101496.00;5058328;28;20116;-74
2022/04/26 04:12:08;;;;;;;12.48;5.45;;;;;;;6.83;83.06;101500.31;5054798;28;20028;-67
2022/04/26 04:14:34;;;;;;;9.00;4.50;;;;;;;6.84;82.69;101501.19;5065522;28;20123;-67
2022/04/26 04:16:59;;;;;;;12.82;5.82;;;;;;;6.77;83.26;101499.75;5051902;28;20036;-68
2022/04/26 04:19:27;;;;;;;13.88;7.05;;;;;;;6.81;83.87;101518.47;5062365;28;20400;-68
2022/04/26 04:21:53;;;;;;;9.30;4.30;;;;;;;6.85;82.89;101516.47;5069198;28;20036;-67
2022/04/26 04:24:19;;;;;;;14.70;5.35;;;;;;;6.82;83.34;101512.09;5070154;28;20047;-68
2022/04/26 04:26:45;;;;;;;10.35;5.75;;;;;;;6.82;83.25;101520.22;5067343;28;20052;-67
2022/04/26 04:29:11;;;;;;;8.18;5.03;;;;;;;6.83;83.34;101524.66;5076507;28;20028;-74
2022/04/26 04:31:36;;;;;;;8.98;4.75;;;;;;;6.82;82.89;101516.63;5053857;28;20040;-73
2022/04/26 04:34:02;;;;;;;9.48;5.38;;;;;;;6.83;83.17;101524.66;5068948;28;20032;-75
2022/04/26 04:36:28;;;;;;;14.07;5.38;;;;;;;6.76;83.57;101515.09;5065530;28;20081;-74
2022/04/26 04:38:55;;;;;;;11.32;5.57;;;;;;;6.83;83.44;101530.06;5069775;28;20392;-75
2022/04/26 04:41:20;;;;;;;8.43;5.85;;;;;;;6.82;83.26;101522.91;5067651;28;20517;-73
2022/04/26 04:43:46;;;;;;;11.60;5.70;;;;;;;6.82;83.54;101528.31;5054202;28;20036;-70
2022/04/26 04:46:11;;;;;;;8.77;5.85;;;;;;;6.83;83.58;101530.06;5067134;28;20059;-73
2022/04/26 04:48:37;;;;;;;15.38;5.38;;;;;;;6.82;83.60;101522.91;5068332;28;20036;-68
2022/04/26 04:51:02;;;;;;;11.60;6.15;;;;;;;6.85;83.44;101536.31;5067438;28;20063;-74
2022/04/26 04:53:27;;;;;;;8.77;5.30;;;;;;;6.85;84.00;101547.13;5068264;28;20032;-73
2022/04/26 04:55:53;;;;;;;9.52;6.20;;;;;;;6.83;83.68;101546.31;5063801;28;20072;-68
2022/04/26 04:58:18;;;;;;;11.73;5.57;;;;;;;6.85;83.36;101546.22;5057415;28;20041;-68
2022/04/26 05:00:44;;;;;;;10.48;5.22;;;;;;;6.88;83.62;101557.78;5063264;28;20039;-75
2022/04/26 05:03:09;;;;;;;9.75;5.28;;;;;;;6.89;83.84;101555.94;5067845;28;20040;-73
2022/04/26 05:05:35;;;;;;;13.77;5.75;;;;;;;6.88;83.69;101555.09;5057942;28;20073;-67
2022/04/26 05:08:00;;;;;;;12.38;5.60;;;;;;;6.89;83.81;101558.66;5067528;28;20025;-67
2022/04/26 05:10:26;;;;;;;7.60;5.03;;;;;;;6.89;83.57;101564.94;5079220;28;20035;-75
2022/04/26 05:12:52;;;;;;;8.95;5.78;;;;;;;6.90;84.23;101577.53;5065591;28;20036;-68
2022/04/26 05:15:18;;;;;;;9.13;5.60;;;;;;;6.90;83.54;101571.22;5064274;28;20044;-73
2022/04/26 05:17:43;;;;;;;10.40;5.50;;;;;;;6.91;84.45;101581.13;5065427;28;20496;-76
2022/04/26 05:20:09;;;;;;;8.23;5.50;;;;;;;6.94;83.98;101578.25;5067762;28;20093;-74
2022/04/26 05:24:53;;;;;;;12.00;5.22;;;;;;;6.95;84.04;101573.72;5069477;28;20170;-76
2022/04/26 05:25:20;;;;;;;8.23;5.60;;;;;;;6.99;83.37;101580.75;5068029;28;20036;-75
2022/04/26 05:27:46;;;;;;;13.07;5.95;;;;;;;6.97;83.97;101583.53;5064288;28;20388;-68
2022/04/26 05:30:12;;;;;;;9.27;5.30;;;;;;;6.95;83.72;101571.00;5057317;28;20068;-75
2022/04/26 05:32:38;;;;;;;14.48;6.00;;;;;;;7.00;83.75;101578.00;5061131;28;20040;-73
2022/04/26 05:35:04;;;;;;;11.13;6.22;;;;;;;7.03;83.81;101585.06;5064344;28;20135;-67
2022/04/26 05:37:31;;;;;;;13.07;6.53;;;;;;;7.05;84.06;101583.19;5061503;28;20037;-75
2022/04/26 05:39:57;;;;;;;10.23;5.65;;;;;;;7.07;83.86;101590.28;5058025;28;20064;-75
2022/04/26 05:42:23;;;;;;;10.43;5.95;;;;;;;7.09;83.99;101591.09;5067439;28;20420;-67
2022/04/26 05:44:49;;;;;;;8.68;5.63;;;;;;;7.12;84.26;101601.75;5067168;28;20025;-67
2022/04/26 05:47:15;;;;;;;13.15;6.15;;;;;;;7.13;83.85;101598.13;5065901;28;20036;-69
2022/04/26 05:49:40;;;;;;;9.90;5.97;;;;;;;7.14;83.63;101599.88;5064681;28;20400;-70
2022/04/26 05:52:06;;;;;;;9.55;6.40;;;;;;;7.20;84.10;101589.72;5067206;28;20464;-73
2022/04/26 05:54:32;;;;;;;9.07;6.25;;;;;;;7.21;83.80;101588.78;5067761;28;20066;-67
2022/04/26 05:56:58;;;;;;;13.75;6.55;;;;;;;7.24;84.01;101597.63;5056773;28;20436;-74
2022/04/26 05:59:24;;;;;;;12.13;7.05;;;;;;;7.23;83.54;101595.88;5071951;28;20476;-67
2022/04/26 06:01:50;;;;;;;12.10;7.13;;;;;;;7.27;83.89;101600.16;5064591;28;20067;-73
2022/04/26 06:04:15;;;;;;;13.05;7.03;;;;;;;7.30;83.97;101600.03;5071202;28;20028;-72
2022/04/26 06:06:41;;;;;;;15.88;7.47;;;;;;;7.27;83.79;101599.28;5059100;28;20480;-70
2022/04/26 06:09:06;;;;;;;10.38;7.07;;;;;;;7.34;83.87;101612.47;5071653;28;20476;-67
2022/04/26 06:11:32;;;;;;;12.52;7.35;;;;;;;7.34;84.23;101614.31;5057804;28;20028;-70
2022/04/26 06:13:58;;;;;;;16.58;9.50;;;;;;;7.36;84.29;101613.28;5064639;28;20048;-67
2022/04/26 06:16:23;;;;;;;12.35;7.88;;;;;;;7.38;83.58;101614.09;5068849;28;20032;-66
2022/04/26 06:18:49;;;;;;;13.75;7.22;;;;;;;7.30;84.62;101605.44;5068450;28;20032;-68
2022/04/26 06:21:15;;;;;;;13.77;7.35;;;;;;;7.36;84.12;101620.53;5069144;28;20476;-74
2022/04/26 06:23:40;;;;;;;16.38;8.20;;;;;;;7.38;83.67;101633.06;5070390;28;20035;-72
2022/04/26 06:26:06;;;;;;;14.40;7.53;;;;;;;7.38;84.14;101618.63;5072005;28;20483;-74
2022/04/26 06:28:31;;;;;;;15.00;8.20;;;;;;;7.42;83.97;101622.97;5068808;28;20082;-69
2022/04/26 06:30:57;;;;;;;13.23;8.25;;;;;;;7.50;83.52;101628.00;5065057;28;20480;-74
2022/04/26 06:33:23;;;;;;;13.70;8.07;;;;;;;7.54;83.13;101632.31;5065402;28;20081;-74
2022/04/26 06:35:48;;;;;;;10.75;8.02;;;;;;;7.57;83.36;101630.34;5069311;28;20043;-68
2022/04/26 06:38:14;;;;;;;15.05;7.75;;;;;;;7.63;82.57;101632.75;5068016;28;20037;-68
2022/04/26 06:40:41;;;;;;;14.25;8.07;;;;;;;7.68;82.84;101636.13;5072326;28;20240;-73
2022/04/26 06:43:07;;;;;;;14.77;7.65;;;;;;;7.76;83.74;101643.91;5059776;28;20139;-68
2022/04/26 06:45:33;;;;;;;17.27;8.88;;;;;;;7.82;82.33;101643.59;5069662;28;20040;-66
2022/04/26 06:47:59;;;;;;;13.40;9.30;;;;;;;7.90;82.28;101644.09;5061996;28;20369;-67
2022/04/26 06:50:25;;;;;;;13.27;7.93;;;;;;;7.97;82.82;101649.22;5069316;28;20380;-65
2022/04/26 06:52:50;;;;;;;19.38;9.27;;;;;;;8.04;82.93;101648.84;5071894;28;20449;-74
2022/04/26 06:55:16;;;;;;;13.75;9.52;;;;;;;8.14;81.36;101642.03;5065165;28;20017;-74
2022/04/26 06:57:41;;;;;;;16.17;9.57;;;;;;;8.22;80.65;101651.63;5069598;28;20089;-67
2022/04/26 07:00:09;;;;;;;14.30;8.50;;;;;;;8.31;81.08;101656.59;5062268;28;20086;-67
2022/04/26 07:02:34;;;;;;;14.07;8.98;;;;;;;8.44;80.12;101652.34;5067487;28;20029;-67
2022/04/26 07:05:00;;;;;;;13.85;9.50;;;;;;;8.58;79.33;101657.94;5065333;28;20128;-73
2022/04/26 07:07:26;;;;;;;15.45;9.35;;;;;;;8.64;79.76;101652.19;5081257;28;20028;-66
2022/04/26 07:09:51;;;;;;;14.77;8.88;;;;;;;8.90;79.47;101652.66;5061286;28;20032;-67
2022/04/26 07:12:17;;;;;;;11.52;8.55;;;;;;;8.97;77.90;101655.94;5052499;28;20032;-66
2022/04/26 07:14:42;;;;;;;12.82;9.07;;;;;;;9.05;78.86;101656.41;5069696;28;20051;-69
2022/04/26 07:17:08;;;;;;;25.45;9.18;;;;;;;9.15;78.44;101658.56;5062997;28;20070;-67
2022/04/26 07:19:35;;;;;;;16.77;8.65;;;;;;;9.20;77.23;101661.91;5066116;28;20040;-74
2022/04/26 07:22:03;;;;;;;14.15;8.93;;;;;;;9.15;75.62;101658.56;5069912;28;20075;-73
2022/04/26 07:24:32;;;;;;;14.88;8.80;;;;;;;9.21;76.88;101660.06;5069980;28;20043;-75
2022/04/26 07:26:58;;;;;;;15.65;8.57;;;;;;;9.32;75.56;101665.78;5066785;28;20028;-67
2022/04/26 07:29:23;;;;;;;14.50;9.27;;;;;;;9.47;75.30;101660.50;5070155;28;20498;-67
2022/04/26 07:31:48;;;;;;;10.70;7.80;;;;;;;9.68;75.14;101665.59;5063722;28;20526;-67
2022/04/26 07:34:24;;;;;;;16.73;8.73;;;;;;;9.75;72.38;101671.59;5070461;28;20027;-73
2022/04/26 07:36:59;;;;;;;16.58;8.23;;;;;;;9.80;74.30;101677.63;5070485;28;20041;-73
2022/04/26 07:39:26;;;;;;;16.30;8.27;;;;;;;9.80;73.69;101680.34;5068785;28;20067;-67
2022/04/26 07:41:51;;;;;;;12.52;7.78;;;;;;;9.74;72.03;101675.25;5058237;28;20119;-68
2022/04/26 07:44:17;;;;;;;18.23;9.32;;;;;;;9.76;72.39;101681.50;5068943;28;20116;-74
2022/04/26 07:46:44;;;;;;;10.32;7.88;;;;;;;9.80;72.45;101674.06;5066452;28;20046;-67
2022/04/26 07:49:11;;;;;;;13.43;7.90;;;;;;;9.84;71.65;101687.38;5066914;28;20036;-71
2022/04/26 07:51:37;;;;;;;13.95;8.48;;;;;;;9.82;72.52;101689.28;5069087;28;20074;-66
2022/04/26 07:54:03;;;;;;;13.38;7.18;;;;;;;9.81;71.60;101692.09;5070815;28;20040;-73
2022/04/26 07:56:28;;;;;;;12.57;8.30;;;;;;;9.75;71.97;101687.03;5070971;28;20365;-73
2022/04/26 07:58:54;;;;;;;15.23;8.80;;;;;;;9.80;73.18;101687.63;5068808;28;20446;-74
2022/04/26 08:01:20;;;;;;;13.25;8.23;;;;;;;9.78;72.62;101690.41;5062309;28;20032;-67
2022/04/26 08:03:45;;;;;;;11.63;7.97;;;;;;;9.86;71.19;101701.75;5062888;28;20498;-66
2022/04/26 08:06:11;;;;;;;14.45;6.90;;;;;;;9.82;70.51;101702.00;5057880;28;20071;-67
2022/04/26 08:08:36;;;;;;;10.68;7.38;;;;;;;9.80;71.10;101707.53;5053023;28;20588;-66
2022/04/26 08:11:03;;;;;;;12.73;7.90;;;;;;;9.73;72.18;101711.53;5058568;28;20037;-67
2022/04/26 08:13:30;;;;;;;12.98;7.78;;;;;;;9.81;74.29;101711.13;5061535;28;20032;-67
2022/04/26 08:15:55;;;;;;;14.50;7.85;;;;;;;9.96;72.08;101713.84;5060391;28;20044;-68
2022/04/26 08:18:22;;;;;;;11.27;6.55;;;;;;;9.97;70.35;101709.28;5058849;28;20033;-67
2022/04/26 08:20:48;;;;;;;11.27;7.25;;;;;;;9.97;71.25;101728.31;5057409;28;20167;-69
2022/04/26 08:23:13;;;;;;;16.30;7.97;;;;;;;9.95;70.78;101722.09;5066661;28;20103;-66
2022/04/26 08:28:23;;;;;;;12.07;7.07;;;;;;;10.04;71.26;101732.47;5058798;28;20032;-75
2022/04/26 08:30:48;;;;;;;12.93;6.90;;;;;;;10.02;70.72;101733.50;5059909;28;20052;-66
2022/04/26 08:33:13;;;;;;;11.20;6.53;;;;;;;10.00;70.97;101733.59;5053280;28;20071;-66
2022/04/26 08:35:39;;;;;;;13.52;7.13;;;;;;;10.02;70.48;101736.22;5082881;28;20036;-67
2022/04/26 08:38:04;;;;;;;11.23;7.57;;;;;;;10.11;70.77;101733.00;5068817;28;20036;-68
2022/04/26 08:40:31;;;;;;;11.88;7.32;;;;;;;10.19;71.27;101744.31;5069666;28;20027;-66
2022/04/26 08:42:59;;;;;;;11.70;6.90;;;;;;;10.27;69.40;101744.81;5058442;28;20033;-66
2022/04/26 08:45:24;;;;;;;12.52;7.03;;;;;;;10.35;69.93;101738.91;5065144;28;20133;-67
2022/04/26 08:53:21;;;;;;;11.45;6.00;;;;;;;10.89;67.04;101740.25;5070109;28;20040;-67
2022/04/26 08:55:49;;;;;;;11.13;5.97;;;;;;;10.89;67.62;101742.97;5069773;28;20452;-66
2022/04/26 08:58:15;;;;;;;10.50;5.43;;;;;;;10.82;66.70;101747.06;5067998;28;20047;-69
2022/04/26 09:01:13;;;;;;;6.82;4.85;;;;;;;10.76;67.46;101738.34;5065931;28;20032;-66
2022/04/26 09:03:59;;;;;;;7.65;6.20;;;;;;;10.84;68.42;101745.09;5060587;28;20588;-69
2022/04/26 09:06:40;;;;;;;9.68;5.50;;;;;;;11.04;65.80;101743.03;5057389;28;20058;-66
2022/04/26 09:09:17;;;;;;;7.80;5.20;;;;;;;11.38;65.33;101739.16;5069885;28;20039;-68
2022/04/26 09:11:43;;;;;;;10.15;6.03;;;;;;;11.66;64.38;101747.38;5055236;28;20067;-66
2022/04/26 09:14:29;;;;;;;8.05;4.85;;;;;;;11.81;64.03;101745.53;5062758;28;20059;-68
2022/04/26 09:17:11;;;;;;;8.57;4.93;;;;;;;12.05;63.55;101753.16;5063802;28;20045;-66
2022/04/26 09:19:56;;;;;;;8.82;5.20;;;;;;;11.90;62.02;101755.00;5063089;28;20037;-73
2022/04/26 09:22:27;;;;;;;10.30;4.75;;;;;;;12.06;63.19;101752.16;5056598;28;20125;-66
2022/04/26 09:24:56;;;;;;;8.90;5.25;;;;;;;12.20;62.19;101746.69;5066545;28;20129;-66
2022/04/26 09:27:23;;;;;;;7.43;4.50;;;;;;;12.29;59.31;101757.00;5063147;28;20068;-74
2022/04/26 09:29:48;;;;;;;6.57;4.40;;;;;;;12.40;57.85;101762.66;5064229;28;20041;-71
2022/04/26 09:32:13;;;;;;;7.90;5.07;;;;;;;12.58;57.46;101760.56;5052607;28;20040;-66
2022/04/26 09:34:39;;;;;;;8.30;4.13;;;;;;;12.64;56.38;101751.97;5063127;28;20039;-73
2022/04/26 09:37:05;;;;;;;10.40;4.55;;;;;;;12.74;57.34;101760.44;5073651;28;20036;-73
2022/04/26 09:39:30;;;;;;;6.97;4.40;;;;;;;13.05;58.58;101764.66;5072050;28;20483;-66
2022/04/26 09:41:55;;;;;;;9.35;4.18;;;;;;;13.31;56.05;101760.19;5070657;28;20384;-74
2022/04/26 09:44:32;;;;;;;6.63;4.22;;;;;;;13.60;56.48;101771.81;5062924;28;20046;-68
2022/04/26 09:46:58;;;;;;;8.27;4.25;;;;;;;13.53;54.16;101776.84;5068300;28;20049;-73
2022/04/26 09:49:25;;;;;;;7.53;4.32;;;;;;;13.17;54.09;101784.81;5061557;28;20082;-72
2022/04/26 09:51:56;;;;;;;9.68;4.25;;;;;;;13.15;55.00;101773.09;5068588;28;20035;-67
2022/04/26 09:54:22;;;;;;;13.30;4.75;;;;;;;13.50;55.25;101778.91;5073185;28;20040;-66
2022/04/26 09:56:49;;;;;;;12.82;3.90;;;;;;;13.63;53.58;101785.28;5069129;28;20036;-71
2022/04/26 09:59:23;;;;;;;7.00;4.50;;;;;;;13.97;58.55;101786.50;5073196;28;20035;-73
2022/04/26 10:01:50;;;;;;;7.53;4.00;;;;;;;14.13;58.03;101779.91;5065082;28;20043;-67
2022/04/26 10:04:21;;;;;;;11.60;4.90;;;;;;;14.33;56.04;101784.81;5072221;28;20369;-66
2022/04/26 10:06:59;;;;;;;8.40;3.85;;;;;;;14.33;54.58;101787.56;5061019;28;20103;-74
2022/04/26 10:09:25;;;;;;;7.43;4.75;;;;;;;14.08;52.84;101788.44;5064404;28;20037;-73
2022/04/26 10:11:57;;;;;;;8.23;3.95;;;;;;;13.79;55.11;101794.13;5074459;28;20037;-69
2022/04/26 10:14:23;;;;;;;9.73;5.30;;;;;;;13.73;55.11;101794.59;5070658;28;20049;-66
2022/04/26 10:16:49;;;;;;;9.27;4.45;;;;;;;13.78;54.59;101788.78;5069133;28;20032;-74
2022/04/26 10:19:16;;;;;;;9.32;4.03;;;;;;;13.73;50.96;101799.19;5059072;28;20048;-66
2022/04/26 10:21:41;;;;;;;9.38;4.70;;;;;;;13.63;52.95;101801.69;5067221;28;20459;-67
2022/04/26 10:24:18;;;;;;;8.10;4.32;;;;;;;13.55;53.18;101801.34;5072892;28;20051;-67
2022/04/26 10:26:44;;;;;;;10.73;4.60;;;;;;;13.56;55.19;101815.88;5071576;28;20044;-67
2022/04/26 10:29:10;;;;;;;9.57;4.55;;;;;;;13.63;53.38;101812.63;5062245;28;20040;-71
2022/04/26 10:31:38;;;;;;;11.75;3.72;;;;;;;13.78;53.23;101821.63;5068110;28;20029;-67
2022/04/26 10:34:31;;;;;;;9.18;4.22;;;;;;;13.86;55.09;101808.28;5070044;28;20475;-67
2022/04/26 10:37:06;;;;;;;7.30;5.30;;;;;;;13.93;52.06;101811.44;5061073;28;20136;-73
2022/04/26 10:39:41;;;;;;;9.55;5.22;;;;;;;13.86;50.09;101815.63;5071959;28;20048;-74
2022/04/26 10:42:13;;;;;;;7.88;4.07;;;;;;;13.81;52.37;101815.06;5058647;28;20040;-67
2022/04/26 10:44:43;;;;;;;6.22;4.03;;;;;;;13.87;51.33;101820.09;5069900;28;20098;-66
2022/04/26 10:47:09;;;;;;;6.70;3.85;;;;;;;13.78;48.53;101825.22;5056712;28;20044;-74
2022/04/26 10:49:40;;;;;;;5.47;3.95;;;;;;;13.73;49.00;101819.19;5064885;28;20024;-75
2022/04/26 10:52:15;;;;;;;6.75;3.70;;;;;;;13.56;49.94;101819.50;5072329;28;20041;-74
2022/04/26 10:54:46;;;;;;;7.60;4.03;;;;;;;13.84;49.82;101823.91;5070513;28;20036;-69
2022/04/26 10:57:17;;;;;;;8.10;3.90;;;;;;;14.35;48.78;101825.75;5067251;28;20056;-67
2022/04/26 10:59:48;;;;;;;6.60;3.90;;;;;;;14.42;49.49;101822.47;5065992;28;20036;-67
2022/04/26 11:02:16;;;;;;;5.97;3.90;;;;;;;14.19;47.76;101824.13;5052433;28;20082;-68
2022/04/26 11:04:42;;;;;;;10.02;5.13;;;;;;;14.06;50.54;101823.25;5069105;28;20044;-67
2022/04/26 11:07:15;;;;;;;6.75;4.53;;;;;;;14.03;49.12;101823.47;5063294;28;20450;-75
2022/04/26 11:09:44;;;;;;;9.30;4.50;;;;;;;14.15;48.71;101835.41;5069918;28;20047;-66
2022/04/26 11:12:09;;;;;;;8.38;3.97;;;;;;;13.97;47.51;101823.91;5067543;28;20033;-70
2022/04/26 11:14:41;;;;;;;5.88;4.10;;;;;;;13.99;50.32;101817.38;5064822;28;20119;-67
2022/04/26 11:17:07;;;;;;;10.25;4.30;;;;;;;14.53;49.45;101818.97;5064836;28;20536;-74
2022/04/26 11:19:36;;;;;;;8.75;4.57;;;;;;;14.95;49.07;101822.25;5070233;28;20158;-67
2022/04/26 11:22:14;;;;;;;14.18;4.95;;;;;;;15.16;48.13;101817.88;5066900;28;20429;-70
2022/04/26 11:30:10;;;;;;;6.60;4.30;;;;;;;14.94;47.74;101823.25;5067606;28;20040;-74
2022/04/26 11:32:44;;;;;;;10.30;4.82;;;;;;;15.27;48.81;101817.06;5064711;28;20594;-73
2022/04/26 11:35:17;;;;;;;7.43;4.55;;;;;;;15.79;49.74;101822.13;5065175;28;20045;-70
2022/04/26 11:38:08;;;;;;;6.78;4.55;;;;;;;15.85;45.79;101822.63;5084863;28;20029;-66
2022/04/26 11:40:41;;;;;;;10.80;4.15;;;;;;;15.86;46.93;101818.94;5063845;28;20068;-75
2022/04/26 11:43:11;;;;;;;5.65;4.05;;;;;;;15.73;42.47;101821.75;5066211;28;20036;-75
2022/04/26 11:45:38;;;;;;;7.38;4.20;;;;;;;15.78;45.34;101838.72;5069459;28;20468;-73
2022/04/26 11:48:08;;;;;;;6.93;4.25;;;;;;;15.56;43.14;101831.25;5064279;28;20122;-74
2022/04/26 11:50:33;;;;;;;11.57;4.63;;;;;;;15.38;42.20;101839.03;5056466;28;20036;-66
2022/04/26 11:53:04;;;;;;;6.63;4.30;;;;;;;15.15;44.00;101835.31;5069777;28;20052;-76
2022/04/26 11:55:32;;;;;;;4.83;4.20;;;;;;;15.27;47.08;101833.50;5068811;28;20148;-75
2022/04/26 11:58:17;;;;;;;7.10;4.28;;;;;;;15.48;45.47;101834.63;5068036;28;20123;-74
2022/04/26 12:00:49;;;;;;;5.90;4.20;;;;;;;15.61;46.80;101841.88;5065632;28;20057;-73
2022/04/26 12:03:16;;;;;;;;;;;;;;;15.57;44.19;101844.88;5066162;28;20227;-75
2022/04/26 12:05:41;;;;;;;8.15;3.72;;;;;;;15.58;40.97;101832.03;5068695;28;19913;-66
2022/04/26 12:08:13;;;;;;;5.18;3.88;;;;;;;15.70;43.06;101855.78;5070834;28;20440;-74
2022/04/26 12:10:39;;;;;;;7.07;4.15;;;;;;;15.81;43.40;101841.25;5070836;28;20037;-65
2022/04/26 12:13:05;;;;;;;8.63;4.50;;;;;;;15.98;41.41;101838.00;5068801;28;20502;-74
2022/04/26 12:15:34;;;;;;;6.28;4.13;;;;;;;16.06;42.72;101832.78;5065996;28;20048;-66
2022/04/26 12:18:07;;;;;;;6.63;3.75;;;;;;;15.59;40.27;101835.66;5066358;28;20048;-65
2022/04/26 12:20:37;;;;;;;7.82;3.40;;;;;;;15.80;42.06;101834.84;5068132;28;20044;-66
2022/04/26 12:23:06;;;;;;;4.90;4.05;;;;;;;15.90;39.66;101837.78;5070345;28;20040;-67
2022/04/26 12:25:35;;;;;;;5.18;3.20;;;;;;;15.97;39.06;101846.38;5068940;28;20032;-66
2022/04/26 12:28:03;;;;;;;8.27;3.60;;;;;;;15.99;42.10;101844.38;5068101;28;20063;-66
2022/04/26 12:30:29;;;;;;;7.07;3.97;;;;;;;15.94;42.09;101842.00;5065942;28;20162;-66
2022/04/26 12:32:55;;;;;;;5.75;3.53;;;;;;;15.91;39.80;101838.63;5058243;28;20331;-74
2022/04/26 12:35:21;;;;;;;7.10;3.97;;;;;;;15.85;39.99;101842.72;5056350;28;20115;-66
2022/04/26 12:37:47;;;;;;;5.88;3.67;;;;;;;15.48;40.31;101842.84;5066967;28;20029;-74
2022/04/26 12:40:15;;;;;;;9.40;3.80;;;;;;;15.33;41.82;101846.75;5066226;28;20047;-73
2022/04/26 12:42:42;;;;;;;5.03;3.60;;;;;;;15.19;41.84;101838.69;5067613;28;20044;-73
2022/04/26 12:45:13;;;;;;;7.10;4.05;;;;;;;15.12;44.06;101843.78;5067963;28;20024;-66
2022/04/26 12:50:28;;;;;;;7.03;4.47;;;;;;;15.36;42.50;101831.94;5050003;28;20400;-65
2022/04/26 12:52:59;;;;;;;8.15;4.97;;;;;;;15.30;43.61;101830.53;5064393;28;20048;-66
2022/04/26 12:55:35;;;;;;;21.77;4.70;;;;;;;15.44;44.98;101829.47;5069773;28;20051;-76
2022/04/26 12:58:05;;;;;;;5.78;4.50;;;;;;;15.63;43.75;101839.91;5051307;28;20098;-76
2022/04/26 13:00:33;;;;;;;8.32;4.75;;;;;;;15.38;43.99;101833.53;5066576;28;20091;-74
2022/04/26 13:03:05;;;;;;;6.20;4.60;;;;;;;15.19;43.21;101845.06;5066381;28;20036;-76
2022/04/26 13:05:45;;;;;;;7.43;4.93;;;;;;;15.09;45.27;101840.38;5061157;28;20028;-76
2022/04/26 13:08:11;;;;;;;7.80;4.53;;;;;;;14.92;44.55;101836.16;5069187;28;20518;-75
2022/04/26 13:10:37;;;;;;;6.75;4.35;;;;;;;14.89;47.75;101834.53;5060326;28;20492;-73
2022/04/26 13:13:03;;;;;;;13.30;4.68;;;;;;;14.81;45.16;101836.97;5059549;28;20158;-66
2022/04/26 13:15:29;;;;;;;7.00;3.90;;;;;;;14.78;44.47;101838.09;5064356;28;20049;-68
2022/04/26 13:17:54;;;;;;;6.78;3.83;;;;;;;14.79;45.08;101838.97;5055290;28;20033;-67
2022/04/26 13:20:20;;;;;;;6.03;4.40;;;;;;;14.56;47.94;101837.06;5063964;28;20078;-74
2022/04/26 13:22:45;;;;;;;6.95;4.47;;;;;;;14.66;48.38;101841.72;5062983;28;20119;-75
2022/04/26 13:25:11;;;;;;;8.40;4.07;;;;;;;14.83;48.32;101832.28;5062800;28;20485;-73
2022/04/26 13:27:40;;;;;;;6.78;4.10;;;;;;;14.89;50.86;101848.25;5053890;28;20048;-68
2022/04/26 13:30:07;;;;;;;6.82;4.63;;;;;;;14.96;45.52;101837.69;5079736;28;20028;-65
2022/04/26 13:32:33;;;;;;;6.07;4.30;;;;;;;15.35;48.52;101833.81;5051193;28;20024;-74
2022/04/26 13:34:59;;;;;;;7.32;3.85;;;;;;;15.36;44.51;101837.41;5078797;28;20412;-67
2022/04/26 13:37:25;;;;;;;6.35;3.92;;;;;;;15.07;43.97;101835.03;5069615;28;20503;-74
2022/04/26 13:39:52;;;;;;;7.80;4.45;;;;;;;15.08;48.22;101838.66;5069213;28;20027;-66
2022/04/26 13:42:19;;;;;;;6.78;4.47;;;;;;;14.96;43.89;101845.91;5064655;28;20033;-67
2022/04/26 13:44:45;;;;;;;18.77;4.70;;;;;;;14.83;47.15;101842.34;5060979;28;20028;-75
2022/04/26 13:47:11;;;;;;;9.10;4.10;;;;;;;15.02;46.58;101840.88;5062921;28;20491;-67
2022/04/26 13:49:39;;;;;;;6.53;4.32;;;;;;;15.18;47.10;101840.56;5057962;28;20028;-69
2022/04/26 13:52:05;;;;;;;7.80;4.03;;;;;;;15.23;46.26;101849.31;5064917;28;20040;-66
2022/04/26 13:54:31;;;;;;;10.45;4.18;;;;;;;15.22;46.18;101842.09;5069135;28;20037;-67
2022/04/26 13:56:57;;;;;;;7.32;3.63;;;;;;;15.18;47.07;101857.00;5067289;28;20097;-73
2022/04/26 13:59:24;;;;;;;6.70;4.18;;;;;;;15.13;44.05;101848.25;5068357;28;20051;-66
2022/04/26 14:01:51;;;;;;;8.25;4.38;;;;;;;15.11;43.95;101854.84;5062485;28;20032;-74
2022/04/26 14:04:17;;;;;;;8.02;4.00;;;;;;;15.22;47.22;101849.44;5066550;28;20115;-65
2022/04/26 14:06:42;;;;;;;6.38;3.63;;;;;;;15.48;44.19;101844.69;5058640;28;20112;-66
2022/04/26 14:09:08;;;;;;;5.18;3.20;;;;;;;15.69;42.10;101842.19;5058805;28;20039;-75
2022/04/26 14:11:34;;;;;;;6.70;3.25;;;;;;;15.59;42.43;101857.59;5068549;28;20064;-76
2022/04/26 14:22:11;;;;;;;8.70;3.47;;;;;;;15.77;41.65;101842.47;5061858;28;20025;-66
2022/04/26 14:24:37;;;;;;;4.95;3.60;;;;;;;15.95;43.30;101848.38;5072819;28;20047;-76
2022/04/26 14:27:02;;;;;;;6.03;3.60;;;;;;;15.72;42.17;101850.19;5064160;28;20041;-66
2022/04/26 14:29:28;;;;;;;4.55;4.07;;;;;;;15.56;42.36;101853.19;5065557;28;20093;-72
2022/04/26 14:31:53;;;;;;;4.82;3.05;;;;;;;15.36;43.19;101851.13;5058038;28;20047;-68
2022/04/26 14:34:18;;;;;;;4.72;3.75;;;;;;;15.20;43.71;101860.53;5069957;28;20028;-68
2022/04/26 14:36:44;;;;;;;5.97;3.28;;;;;;;15.24;43.75;101862.03;5066804;28;20059;-73
2022/04/26 14:39:12;;;;;;;5.47;3.25;;;;;;;15.36;45.16;101857.47;5071080;28;20125;-66
2022/04/26 14:41:37;;;;;;;6.05;3.67;;;;;;;15.47;44.08;101857.53;5072927;28;20032;-66
2022/04/26 14:44:03;;;;;;;6.38;3.78;;;;;;;15.29;44.08;101861.66;5062546;28;20019;-75
2022/04/26 14:46:28;;;;;;;6.55;3.67;;;;;;;15.17;44.48;101865.38;5062584;28;20032;-67
2022/04/26 14:48:54;;;;;;;5.57;3.53;;;;;;;15.17;44.68;101871.72;5060914;28;20121;-74
2022/04/26 14:51:19;;;;;;;4.85;3.22;;;;;;;15.10;45.48;101853.97;5070948;28;20043;-67
2022/04/26 14:53:45;;;;;;;6.63;3.47;;;;;;;15.09;45.64;101863.19;5071930;28;20040;-73
2022/04/26 14:56:10;;;;;;;5.63;3.17;;;;;;;15.09;43.94;101863.19;5070411;28;20037;-66
2022/04/26 14:58:36;;;;;;;6.30;3.53;;;;;;;15.01;45.20;101862.88;5064369;28;20048;-66
2022/04/26 15:01:02;;;;;;;7.55;3.70;;;;;;;15.12;45.02;101868.44;5062752;28;20036;-68
2022/04/26 15:03:28;;;;;;;5.47;3.55;;;;;;;15.06;42.64;101868.88;5060931;28;20041;-66
2022/04/26 15:05:58;;;;;;;4.63;3.80;;;;;;;14.72;44.28;101874.13;5061364;28;20033;-67
2022/04/26 15:11:07;;;;;;;6.00;3.40;;;;;;;14.69;44.09;101855.22;5059974;28;20036;-67
2022/04/26 15:19:00;;;;;;;4.85;3.30;;;;;;;15.24;42.91;101862.03;5065380;28;20040;-75
2022/04/26 15:21:26;;;;;;;5.05;3.47;;;;;;;15.27;43.23;101866.41;5067313;28;20480;-76
2022/04/26 15:23:53;;;;;;;7.10;2.95;;;;;;;15.21;41.22;101864.16;5071826;28;20415;-67
2022/04/26 15:26:19;;;;;;;3.40;3.03;;;;;;;15.05;40.92;101859.78;5069385;28;20063;-76
2022/04/26 15:28:44;;;;;;;5.70;2.92;;;;;;;15.17;41.70;101849.78;5069044;28;20060;-75
2022/04/26 15:31:10;;;;;;;4.85;3.08;;;;;;;15.17;39.64;101858.00;5068215;28;20071;-70
2022/04/26 15:33:35;;;;;;;5.28;3.13;;;;;;;15.34;40.09;101866.81;5069614;28;20040;-66
2022/04/26 15:36:01;;;;;;;5.93;3.10;;;;;;;15.21;39.37;101858.66;5066050;28;20082;-76
2022/04/26 15:38:29;;;;;;;3.15;2.80;;;;;;;15.21;39.25;101861.41;5068325;28;20067;-66